createdAt,value
2018-03-22T00:01:51.531Z,18.73
2018-03-22T00:04:19.084Z,15.43
2018-03-22T00:06:46.646Z,17.10
2018-03-22T00:09:14.187Z,13.52
2018-03-22T00:11:41.824Z,7.50
2018-03-22T00:14:09.402Z,8.55
2018-03-22T00:16:37.011Z,8.73
2018-03-22T00:19:04.578Z,8.13
2018-03-22T00:21:32.128Z,5.57
2018-03-22T00:24:00.824Z,7.60
2018-03-22T00:26:28.378Z,8.10
2018-03-22T00:28:56.677Z,5.22
2018-03-22T00:31:24.206Z,7.78
2018-03-22T00:33:51.788Z,8.82
2018-03-22T00:36:20.111Z,7.10
2018-03-22T00:38:47.663Z,11.85
2018-03-22T00:41:15.227Z,7.57
2018-03-22T00:43:42.874Z,6.45
2018-03-22T00:46:11.182Z,7.28
2018-03-22T00:48:38.753Z,6.10
2018-03-22T00:51:06.299Z,10.88
2018-03-22T00:53:33.850Z,7.90
2018-03-22T00:56:02.157Z,5.50
2018-03-22T00:58:29.683Z,6.30
2018-03-22T01:00:57.255Z,5.82
2018-03-22T01:03:24.822Z,7.20
2018-03-22T01:05:52.338Z,9.90
2018-03-22T01:08:19.884Z,6.62
2018-03-22T01:10:47.533Z,6.78
2018-03-22T01:13:15.906Z,8.43
2018-03-22T01:15:43.448Z,7.28
2018-03-22T01:18:10.987Z,7.35
2018-03-22T01:20:38.564Z,8.18
2018-03-22T01:23:06.113Z,7.78
2018-03-22T01:25:33.663Z,9.77
2018-03-22T01:28:01.177Z,9.43
2018-03-22T01:30:36.528Z,9.60
2018-03-22T01:33:04.073Z,12.93
2018-03-22T01:35:31.615Z,11.48
2018-03-22T01:37:59.296Z,10.07
2018-03-22T01:40:26.871Z,9.63
2018-03-22T01:42:54.631Z,10.05
2018-03-22T01:45:22.214Z,8.82
2018-03-22T01:47:49.763Z,10.57
2018-03-22T01:50:17.310Z,9.60
2018-03-22T01:52:56.580Z,8.05
2018-03-22T01:55:24.161Z,8.05
2018-03-22T01:57:51.751Z,10.25
2018-03-22T02:00:20.084Z,10.13
2018-03-22T02:02:47.613Z,9.20
2018-03-22T02:05:15.331Z,10.38
2018-03-22T02:07:42.867Z,9.07
2018-03-22T02:10:10.484Z,11.20
2018-03-22T02:12:38.016Z,10.70
2018-03-22T02:15:05.555Z,13.55
2018-03-22T02:17:33.156Z,13.02
2018-03-22T02:20:01.471Z,11.98
2018-03-22T02:22:29.782Z,12.43
2018-03-22T02:24:57.357Z,13.57
2018-03-22T02:27:24.921Z,10.73
2018-03-22T02:29:52.630Z,15.80
2018-03-22T02:32:20.326Z,13.95
2018-03-22T02:34:48.717Z,11.77
2018-03-22T02:37:17.179Z,13.38
2018-03-22T02:39:44.770Z,10.02
2018-03-22T02:42:12.332Z,14.45
2018-03-22T02:44:40.642Z,11.32
2018-03-22T02:47:08.174Z,14.10
2018-03-22T02:49:36.571Z,16.92
2018-03-22T02:52:04.447Z,11.50
2018-03-22T02:54:32.043Z,16.95
2018-03-22T02:56:59.579Z,16.70
2018-03-22T02:59:27.108Z,14.23
2018-03-22T03:01:54.768Z,14.70
2018-03-22T03:04:22.358Z,13.30
2018-03-22T03:06:50.675Z,15.65
2018-03-22T03:09:18.242Z,20.10
2018-03-22T03:11:45.816Z,13.38
2018-03-22T03:14:13.858Z,15.27
2018-03-22T03:16:42.158Z,12.70
2018-03-22T03:19:09.697Z,12.45
2018-03-22T03:21:38.096Z,12.68
2018-03-22T03:24:05.640Z,20.65
2018-03-22T03:26:33.954Z,21.15
2018-03-22T03:29:01.524Z,16.58
2018-03-22T03:31:29.059Z,17.65
2018-03-22T03:33:57.353Z,19.77
2018-03-22T03:36:25.668Z,14.70
2018-03-22T03:38:53.236Z,14.02
2018-03-22T03:41:20.844Z,13.55
2018-03-22T03:43:48.469Z,13.20
2018-03-22T03:46:16.014Z,12.82
2018-03-22T03:48:43.544Z,13.32
2018-03-22T03:51:11.113Z,14.38
2018-03-22T03:53:38.660Z,15.38
2018-03-22T03:56:06.195Z,12.35
2018-03-22T03:58:33.731Z,14.43
2018-03-22T04:01:01.271Z,13.98
2018-03-22T04:03:28.837Z,13.90
2018-03-22T04:05:56.381Z,14.77
2018-03-22T04:08:23.918Z,13.70
2018-03-22T04:10:51.466Z,13.43
2018-03-22T04:13:18.997Z,13.10
2018-03-22T04:15:46.638Z,12.00
2018-03-22T04:18:14.182Z,13.07
2018-03-22T04:20:41.733Z,10.43
2018-03-22T04:23:09.300Z,13.85
2018-03-22T04:25:36.862Z,13.70
2018-03-22T04:28:04.406Z,15.18
2018-03-22T04:30:32.729Z,13.82
2018-03-22T04:33:00.270Z,13.73
2018-03-22T04:35:27.844Z,17.12
2018-03-22T04:37:55.372Z,12.98
2018-03-22T04:40:22.938Z,16.00
2018-03-22T04:42:50.581Z,11.68
2018-03-22T04:45:18.120Z,16.02
2018-03-22T04:47:45.664Z,15.23
2018-03-22T04:50:13.203Z,12.32
2018-03-22T04:52:41.564Z,13.30
2018-03-22T04:55:09.145Z,17.98
2018-03-22T04:57:36.684Z,15.45
2018-03-22T05:00:04.215Z,14.43
2018-03-22T05:02:31.783Z,15.82
2018-03-22T05:04:59.403Z,13.88
2018-03-22T05:07:26.938Z,12.93
2018-03-22T05:09:54.496Z,14.48
2018-03-22T05:12:22.039Z,14.50
2018-03-22T05:14:49.547Z,13.15
2018-03-22T05:17:17.108Z,15.43
2018-03-22T05:19:44.651Z,14.90
2018-03-22T05:22:12.192Z,13.73
2018-03-22T05:24:39.856Z,20.45
2018-03-22T05:27:07.411Z,15.82
2018-03-22T05:29:36.102Z,18.42
2018-03-22T05:32:04.430Z,17.60
2018-03-22T05:34:31.977Z,18.83
2018-03-22T05:36:59.693Z,16.40
2018-03-22T05:39:27.262Z,17.00
2018-03-22T05:41:54.845Z,16.98
2018-03-22T05:44:22.369Z,20.75
2018-03-22T05:46:49.918Z,15.77
2018-03-22T05:49:17.493Z,18.25
2018-03-22T05:51:45.866Z,16.30
2018-03-22T05:54:13.782Z,20.40
2018-03-22T05:56:41.307Z,16.02
2018-03-22T05:59:08.853Z,19.12
2018-03-22T06:01:36.390Z,19.08
2018-03-22T06:04:03.984Z,18.08
2018-03-22T06:06:31.533Z,15.68
2018-03-22T06:08:59.848Z,18.35
2018-03-22T06:11:27.384Z,17.27
2018-03-22T06:13:55.706Z,19.05
2018-03-22T06:16:23.340Z,19.55
2018-03-22T06:18:51.272Z,17.17
2018-03-22T06:21:18.833Z,16.87
2018-03-22T06:23:46.369Z,16.55
2018-03-22T06:26:13.958Z,16.75
2018-03-22T06:28:41.555Z,18.37
2018-03-22T06:31:09.119Z,16.62
2018-03-22T06:33:36.662Z,17.65
2018-03-22T06:36:04.337Z,19.95
2018-03-22T06:38:31.896Z,17.27
2018-03-22T06:40:59.434Z,18.95
2018-03-22T06:43:27.101Z,21.58
2018-03-22T06:45:54.637Z,18.15
2018-03-22T06:48:22.940Z,20.17
2018-03-22T06:50:50.541Z,17.73
2018-03-22T06:53:18.094Z,19.58
2018-03-22T06:55:45.653Z,19.75
2018-03-22T06:58:13.206Z,19.15
2018-03-22T07:00:40.743Z,17.42
2018-03-22T07:03:08.289Z,20.98
2018-03-22T07:05:35.837Z,19.30
2018-03-22T07:08:03.390Z,21.00
2018-03-22T07:10:31.333Z,19.23
2018-03-22T07:12:58.957Z,22.62
2018-03-22T07:15:26.496Z,21.48
2018-03-22T07:17:54.034Z,28.85
2018-03-22T07:20:21.589Z,29.35
2018-03-22T07:22:49.108Z,24.83
2018-03-22T07:25:16.668Z,23.35
2018-03-22T07:27:44.201Z,20.02
2018-03-22T07:30:11.731Z,24.67
2018-03-22T07:32:40.069Z,23.30
2018-03-22T07:35:07.601Z,24.30
2018-03-22T07:37:35.132Z,24.50
2018-03-22T07:40:02.640Z,24.83
2018-03-22T07:42:30.185Z,22.85
2018-03-22T07:44:58.850Z,28.58
2018-03-22T07:47:26.384Z,24.58
2018-03-22T07:49:53.939Z,23.70
2018-03-22T07:52:21.505Z,22.85
2018-03-22T07:54:49.025Z,21.20
2018-03-22T07:57:17.342Z,24.95
2018-03-22T07:59:44.861Z,25.85
2018-03-22T08:02:12.475Z,24.33
2018-03-22T08:04:39.990Z,23.67
2018-03-22T08:07:07.569Z,27.52
2018-03-22T08:09:35.890Z,27.00
2018-03-22T08:12:03.500Z,29.45
2018-03-22T08:14:31.031Z,23.12
2018-03-22T08:16:58.590Z,27.70
2018-03-22T08:19:26.258Z,28.05
2018-03-22T08:21:53.820Z,24.55
2018-03-22T08:24:21.355Z,25.83
2018-03-22T08:26:49.654Z,25.25
2018-03-22T08:29:17.223Z,24.63
2018-03-22T08:31:44.748Z,26.48
2018-03-22T08:34:12.304Z,26.65
2018-03-22T08:36:39.865Z,25.60
2018-03-22T08:39:07.459Z,24.30
2018-03-22T08:41:35.774Z,21.65
2018-03-22T08:44:03.306Z,25.42
2018-03-22T08:46:31.637Z,27.98
2018-03-22T08:48:59.175Z,25.30
2018-03-22T08:51:26.769Z,24.60
2018-03-22T08:53:54.319Z,28.70
2018-03-22T08:56:21.900Z,26.25
2018-03-22T08:58:50.220Z,24.23
2018-03-22T09:01:17.784Z,23.52
2018-03-22T09:03:45.318Z,25.62
2018-03-22T09:06:12.849Z,24.58
2018-03-22T09:08:40.411Z,29.02
2018-03-22T09:11:07.992Z,28.15
2018-03-22T09:13:35.551Z,26.80
2018-03-22T09:16:03.259Z,31.40
2018-03-22T09:18:30.809Z,26.87
2018-03-22T09:20:58.412Z,24.17
2018-03-22T09:23:26.074Z,24.95
2018-03-22T09:25:53.617Z,36.15
2018-03-22T09:28:21.202Z,34.97
2018-03-22T09:30:48.821Z,41.33
2018-03-22T09:33:16.365Z,32.80
2018-03-22T09:35:44.705Z,34.75
2018-03-22T09:38:12.344Z,35.13
2018-03-22T09:40:39.923Z,37.53
2018-03-22T09:43:07.464Z,33.13
2018-03-22T09:45:34.999Z,32.97
2018-03-22T09:48:03.308Z,32.13
2018-03-22T09:50:30.849Z,25.90
2018-03-22T09:52:59.154Z,25.95
2018-03-22T09:55:26.722Z,23.73
2018-03-22T09:57:54.268Z,29.20
2018-03-22T10:00:22.587Z,25.88
2018-03-22T10:02:50.195Z,27.17
2018-03-22T10:05:17.658Z,30.55
2018-03-22T10:07:45.190Z,29.50
2018-03-22T10:10:12.731Z,33.30
2018-03-22T10:12:40.608Z,32.67
2018-03-22T10:15:08.137Z,25.55
2018-03-22T10:17:35.767Z,29.60
2018-03-22T10:20:04.122Z,28.45
2018-03-22T10:22:31.661Z,28.87
2018-03-22T10:25:00.147Z,29.83
2018-03-22T10:27:28.458Z,32.58
2018-03-22T10:29:55.996Z,34.70
2018-03-22T10:32:24.283Z,27.37
2018-03-22T10:34:52.606Z,28.67
2018-03-22T10:37:20.184Z,27.48
2018-03-22T10:39:47.709Z,31.25
2018-03-22T10:42:15.261Z,28.12
2018-03-22T10:44:43.562Z,26.60
2018-03-22T10:47:11.101Z,23.35
2018-03-22T10:49:38.647Z,24.10
2018-03-22T10:52:06.256Z,21.60
2018-03-22T10:54:34.563Z,21.98
2018-03-22T10:57:02.099Z,24.10
2018-03-22T10:59:30.401Z,22.48
2018-03-22T11:02:00.781Z,18.80
2018-03-22T11:04:28.326Z,21.08
2018-03-22T11:06:55.864Z,19.35
2018-03-22T11:09:23.398Z,21.75
2018-03-22T11:11:51.702Z,20.65
2018-03-22T11:14:19.263Z,20.10
2018-03-22T11:16:46.879Z,24.12
2018-03-22T11:19:14.424Z,21.27
2018-03-22T11:21:41.954Z,24.55
2018-03-22T11:24:10.269Z,25.08
2018-03-22T11:26:37.849Z,22.37
2018-03-22T11:29:05.584Z,23.48
2018-03-22T11:31:33.122Z,21.62
2018-03-22T11:34:01.435Z,22.17
2018-03-22T11:36:28.968Z,26.02
2018-03-22T11:38:57.310Z,25.23
2018-03-22T11:41:24.851Z,23.62
2018-03-22T11:43:52.388Z,26.65
2018-03-22T11:46:20.710Z,24.98
2018-03-22T11:48:48.234Z,25.62
2018-03-22T11:51:16.585Z,26.67
2018-03-22T11:53:44.181Z,23.60
2018-03-22T11:56:11.659Z,24.67
2018-03-22T11:58:39.212Z,25.52
2018-03-22T12:01:07.498Z,23.87
2018-03-22T12:03:35.857Z,24.00
2018-03-22T12:06:03.375Z,24.75
2018-03-22T12:08:30.915Z,21.12
2018-03-22T12:10:59.234Z,22.27
2018-03-22T12:13:26.770Z,25.40
2018-03-22T12:15:54.349Z,22.83
2018-03-22T12:18:21.898Z,22.25
2018-03-22T12:20:50.198Z,25.05
2018-03-22T12:23:17.828Z,27.00
2018-03-22T12:25:46.182Z,23.15
2018-03-22T12:28:14.548Z,23.55
2018-03-22T12:30:42.144Z,25.42
2018-03-22T12:33:09.686Z,26.27
2018-03-22T12:35:37.241Z,25.45
2018-03-22T12:38:04.778Z,23.08
2018-03-22T12:40:33.111Z,23.95
2018-03-22T12:43:00.643Z,22.50
2018-03-22T12:45:28.298Z,23.65
2018-03-22T12:47:55.860Z,22.33
2018-03-22T12:50:24.307Z,22.73
2018-03-22T12:52:51.892Z,22.67
2018-03-22T12:55:19.547Z,21.98
2018-03-22T12:57:47.078Z,23.17
2018-03-22T13:00:14.642Z,22.10
2018-03-22T13:02:42.191Z,23.90
2018-03-22T13:05:09.737Z,26.12
2018-03-22T13:07:38.054Z,26.42
2018-03-22T13:10:05.582Z,25.90
2018-03-22T13:12:33.917Z,28.33
2018-03-22T13:15:01.454Z,25.92
2018-03-22T13:17:29.035Z,29.37
2018-03-22T13:19:56.659Z,28.17
2018-03-22T13:22:27.915Z,31.70
2018-03-22T13:24:56.217Z,27.37
2018-03-22T13:27:24.207Z,27.62
2018-03-22T13:29:52.698Z,29.10
2018-03-22T13:32:20.399Z,29.02
2018-03-22T13:34:47.949Z,30.60
2018-03-22T13:37:15.490Z,28.25
2018-03-22T13:39:43.281Z,30.35
2018-03-22T13:42:10.897Z,28.35
2018-03-22T13:44:39.201Z,61.35
2018-03-22T13:47:06.774Z,183.70
2018-03-22T13:49:34.409Z,38.58
2018-03-22T13:52:02.715Z,32.90
2018-03-22T13:54:30.350Z,28.17
2018-03-22T13:56:58.781Z,26.73
2018-03-22T13:59:26.474Z,28.90
2018-03-22T14:01:54.006Z,28.55
2018-03-22T14:04:21.576Z,29.08
2018-03-22T14:06:49.185Z,29.63
2018-03-22T14:09:16.776Z,27.13
2018-03-22T14:11:44.391Z,30.42
2018-03-22T14:14:11.922Z,26.15
2018-03-22T14:16:39.512Z,29.73
2018-03-22T14:19:07.073Z,26.25
2018-03-22T14:21:34.623Z,29.08
2018-03-22T14:24:02.463Z,27.58
2018-03-22T14:26:30.023Z,30.60
2018-03-22T14:28:57.582Z,28.05
2018-03-22T14:31:25.139Z,30.35
2018-03-22T14:33:52.700Z,31.75
2018-03-22T14:36:20.247Z,34.72
2018-03-22T14:38:48.671Z,29.70
2018-03-22T14:41:16.235Z,25.75
2018-03-22T14:43:43.946Z,30.52
2018-03-22T14:46:11.538Z,29.42
2018-03-22T14:48:39.080Z,30.48
2018-03-22T14:51:06.615Z,29.67
2018-03-22T14:53:35.078Z,30.58
2018-03-22T14:56:02.659Z,30.37
2018-03-22T14:58:30.208Z,29.20
2018-03-22T15:00:57.753Z,26.20
2018-03-22T15:03:25.314Z,28.42
2018-03-22T15:05:52.925Z,29.80
2018-03-22T15:08:21.281Z,38.83
2018-03-22T15:10:48.821Z,42.05
2018-03-22T15:13:16.374Z,24.55
2018-03-22T15:15:43.909Z,32.40
2018-03-22T15:18:12.203Z,26.65
2018-03-22T15:20:39.777Z,34.83
2018-03-22T15:23:07.317Z,30.42
2018-03-22T15:25:34.961Z,24.67
2018-03-22T15:28:02.479Z,26.87
2018-03-22T15:30:30.031Z,28.48
2018-03-22T15:32:58.366Z,28.40
2018-03-22T15:35:25.911Z,26.02
2018-03-22T15:37:53.461Z,26.02
2018-03-22T15:40:20.998Z,24.37
2018-03-22T15:42:49.393Z,23.77
2018-03-22T15:45:17.891Z,50.90
2018-03-22T15:47:45.820Z,39.63
2018-03-22T15:50:13.330Z,32.58
2018-03-22T15:52:40.983Z,51.28
2018-03-22T15:55:09.304Z,28.55
2018-03-22T15:57:37.177Z,49.85
2018-03-22T16:00:04.744Z,25.62
2018-03-22T16:02:33.012Z,42.28
2018-03-22T16:05:00.780Z,89.03
2018-03-22T16:07:28.320Z,66.25
2018-03-22T16:09:56.640Z,45.08
2018-03-22T16:12:24.224Z,30.85
2018-03-22T16:14:51.784Z,33.38
2018-03-22T16:17:19.321Z,27.50
2018-03-22T16:19:46.851Z,27.90
2018-03-22T16:22:14.425Z,41.55
2018-03-22T16:24:42.729Z,37.65
2018-03-22T16:27:10.308Z,29.42
2018-03-22T16:29:37.861Z,45.22
2018-03-22T16:32:05.399Z,31.65
2018-03-22T16:34:33.928Z,31.65
2018-03-22T16:37:01.516Z,34.90
2018-03-22T16:39:29.057Z,30.90
2018-03-22T16:41:57.593Z,31.05
2018-03-22T16:44:25.153Z,28.95
2018-03-22T16:46:52.740Z,34.05
2018-03-22T16:49:21.072Z,34.88
2018-03-22T16:51:48.661Z,29.02
2018-03-22T16:54:16.194Z,26.75
2018-03-22T16:56:43.768Z,26.70
2018-03-22T16:59:11.369Z,24.98
2018-03-22T17:01:38.950Z,26.12
2018-03-22T17:04:06.509Z,25.77
2018-03-22T17:06:34.071Z,23.40
2018-03-22T17:09:01.705Z,22.27
2018-03-22T17:11:29.294Z,24.40
2018-03-22T17:13:56.844Z,24.12
2018-03-22T17:16:24.447Z,22.98
2018-03-22T17:18:52.768Z,20.70
2018-03-22T17:21:20.319Z,21.08
2018-03-22T17:23:47.902Z,21.00
2018-03-22T17:26:16.227Z,24.23
2018-03-22T17:28:44.544Z,23.90
2018-03-22T17:31:12.099Z,26.42
2018-03-22T17:33:40.418Z,26.80
2018-03-22T17:36:08.010Z,29.90
2018-03-22T17:38:35.583Z,34.95
2018-03-22T17:41:03.111Z,30.73
2018-03-22T17:43:30.675Z,31.27
2018-03-22T17:45:58.245Z,33.60
2018-03-22T17:48:25.833Z,32.65
2018-03-22T17:50:53.374Z,34.13
2018-03-22T17:53:20.945Z,34.80
2018-03-22T17:55:48.512Z,37.75
2018-03-22T17:58:16.068Z,36.00
2018-03-22T18:00:43.630Z,41.22
2018-03-22T18:03:11.195Z,39.70
2018-03-22T18:05:38.769Z,41.25
2018-03-22T18:08:06.321Z,41.05
2018-03-22T18:10:33.892Z,40.50
2018-03-22T18:13:01.470Z,41.25
2018-03-22T18:15:29.043Z,43.53
2018-03-22T18:17:56.607Z,40.95
2018-03-22T18:20:24.928Z,42.95
2018-03-22T18:22:52.498Z,45.25
2018-03-22T18:25:20.521Z,46.37
2018-03-22T18:27:48.114Z,49.15
2018-03-22T18:30:15.820Z,43.95
2018-03-22T18:32:43.477Z,41.75
2018-03-22T18:35:11.043Z,43.65
2018-03-22T18:37:38.651Z,43.25
2018-03-22T18:40:06.344Z,43.25
2018-03-22T18:42:33.933Z,43.47
2018-03-22T18:45:01.514Z,41.40
2018-03-22T18:47:29.867Z,36.88
2018-03-22T18:49:57.518Z,45.92
2018-03-22T18:52:25.246Z,40.30
2018-03-22T18:54:53.710Z,40.17
2018-03-22T18:57:21.303Z,42.00
2018-03-22T18:59:49.636Z,38.05
2018-03-22T19:02:17.662Z,38.53
2018-03-22T19:04:45.312Z,36.67
2018-03-22T19:07:13.345Z,39.33
2018-03-22T19:09:41.084Z,41.25
2018-03-22T19:12:08.679Z,35.90
2018-03-22T19:14:36.407Z,41.55
2018-03-22T19:17:04.808Z,38.67
2018-03-22T19:19:32.443Z,38.20
2018-03-22T19:22:00.163Z,44.10
2018-03-22T19:24:28.477Z,41.35
2018-03-22T19:26:56.194Z,38.40
2018-03-22T19:29:23.955Z,37.65
2018-03-22T19:31:52.332Z,39.83
2018-03-22T19:34:20.746Z,41.88
2018-03-22T19:36:48.383Z,44.83
2018-03-22T19:39:16.771Z,53.03
2018-03-22T19:41:45.196Z,48.83
2018-03-22T19:44:13.078Z,58.45
2018-03-22T19:46:41.772Z,55.08
2018-03-22T19:49:10.424Z,51.45
2018-03-22T19:51:39.247Z,46.58
2018-03-22T19:54:09.707Z,48.30
2018-03-22T19:56:37.515Z,53.95
2018-03-22T19:59:06.097Z,48.33
2018-03-22T20:01:34.758Z,49.83
2018-03-22T20:04:02.613Z,78.32
2018-03-22T20:06:30.289Z,75.05
2018-03-22T20:08:57.948Z,100.53
2018-03-22T20:11:25.661Z,54.80
2018-03-22T20:13:54.048Z,46.78
2018-03-22T20:16:22.570Z,122.05
2018-03-22T20:18:50.333Z,69.43
2018-03-22T20:21:18.062Z,60.95
2018-03-22T20:23:46.241Z,234.65
2018-03-22T20:26:14.689Z,88.78
2018-03-22T20:28:43.370Z,65.53
2018-03-22T20:31:11.119Z,70.05
2018-03-22T20:33:38.880Z,102.82
2018-03-22T20:36:07.259Z,76.45
2018-03-22T20:38:35.640Z,70.30
2018-03-22T20:41:04.128Z,148.32
2018-03-22T20:43:32.751Z,93.15
2018-03-22T20:46:00.919Z,74.55
2018-03-22T20:48:28.529Z,73.32
2018-03-22T20:50:56.121Z,263.98
2018-03-22T20:53:23.736Z,188.75
2018-03-22T20:55:51.335Z,170.48
2018-03-22T20:58:18.980Z,92.40
2018-03-22T21:00:46.598Z,134.32
2018-03-22T21:03:14.981Z,73.87
2018-03-22T21:05:44.156Z,115.85
2018-03-22T21:08:11.731Z,154.20
2018-03-22T21:10:39.326Z,113.37
2018-03-22T21:13:07.657Z,55.63
2018-03-22T21:15:35.258Z,99.37
2018-03-22T21:18:03.209Z,250.62
2018-03-22T21:20:30.805Z,101.82
2018-03-22T21:22:59.146Z,431.63
2018-03-22T21:25:26.734Z,268.40
2018-03-22T21:27:54.305Z,239.88
2018-03-22T21:30:22.188Z,139.12
2018-03-22T21:32:49.992Z,71.95
2018-03-22T21:35:17.633Z,267.17
2018-03-22T21:37:46.028Z,170.87
2018-03-22T21:40:14.365Z,139.32
2018-03-22T21:42:41.996Z,74.28
2018-03-22T21:45:09.540Z,70.15
2018-03-22T21:47:37.880Z,163.73
2018-03-22T21:50:05.446Z,68.10
2018-03-22T21:52:44.907Z,83.97
2018-03-22T21:55:12.454Z,78.15
2018-03-22T21:57:40.013Z,113.47
2018-03-22T22:00:07.589Z,245.98
2018-03-22T22:02:35.178Z,95.32
2018-03-22T22:05:03.512Z,153.38
2018-03-22T22:07:31.087Z,204.52
2018-03-22T22:09:58.648Z,449.73
2018-03-22T22:12:26.287Z,196.12
2018-03-22T22:14:54.626Z,267.80
2018-03-22T22:17:22.168Z,354.17
2018-03-22T22:19:49.714Z,189.85
2018-03-22T22:22:17.281Z,150.90
2018-03-22T22:24:44.856Z,209.32
2018-03-22T22:27:12.409Z,289.48
2018-03-22T22:29:40.002Z,269.70
2018-03-22T22:32:07.630Z,429.80
2018-03-22T22:34:35.177Z,162.43
2018-03-22T22:37:03.523Z,174.75
2018-03-22T22:39:31.083Z,239.18
2018-03-22T22:41:58.656Z,179.30
2018-03-22T22:44:26.218Z,206.25
2018-03-22T22:46:53.768Z,306.75
2018-03-22T22:49:21.528Z,67.82
2018-03-22T22:51:49.074Z,170.15
2018-03-22T22:54:16.648Z,178.15
2018-03-22T22:56:44.290Z,701.42
2018-03-22T22:59:11.835Z,506.48
2018-03-22T23:01:39.416Z,299.88
2018-03-22T23:04:07.732Z,423.08
2018-03-22T23:06:35.293Z,217.68
2018-03-22T23:09:02.826Z,155.05
2018-03-22T23:11:31.157Z,631.25
2018-03-22T23:13:58.746Z,573.83
2018-03-22T23:16:26.290Z,145.48
2018-03-22T23:18:53.838Z,131.68
2018-03-22T23:21:21.391Z,310.27
2018-03-22T23:23:49.684Z,153.30
2018-03-22T23:26:17.560Z,437.60
2018-03-22T23:28:45.111Z,343.25
2018-03-22T23:31:13.539Z,225.07
2018-03-22T23:33:41.098Z,174.65
2018-03-22T23:36:08.635Z,174.60
2018-03-22T23:38:36.220Z,394.17
2018-03-22T23:41:03.993Z,491.40
2018-03-22T23:43:31.583Z,447.77
2018-03-22T23:45:59.110Z,158.95
2018-03-22T23:48:26.923Z,367.40
2018-03-22T23:50:54.489Z,491.77
2018-03-22T23:53:22.035Z,172.73
2018-03-22T23:55:49.582Z,168.45
2018-03-22T23:58:17.131Z,223.82
